sensor_id;sensor_type;location;lat;lon;timestamp;pressure;altitude;pressure_sealevel;temperature;humidity
27685;BME280;46113;50.130;8.526;2023-05-23T04:03:06;98989.00;;;13.35;79.39
27685;BME280;46113;50.130;8.526;2023-05-23T04:05:34;98987.84;;;13.51;79.02
27685;BME280;46113;50.130;8.526;2023-05-23T04:08:02;98988.69;;;13.27;79.54
27685;BME280;46113;50.130;8.526;2023-05-23T04:10:29;98990.81;;;13.10;79.92
27685;BME280;46113;50.130;8.526;2023-05-23T04:12:57;99002.50;;;13.08;80.30
27685;BME280;46113;50.130;8.526;2023-05-23T04:15:24;99008.38;;;12.87;81.07
27685;BME280;46113;50.130;8.526;2023-05-23T04:17:54;99013.28;;;13.05;81.74
27685;BME280;46113;50.130;8.526;2023-05-23T04:20:22;99012.66;;;13.38;79.96
27685;BME280;46113;50.130;8.526;2023-05-23T04:22:49;99024.09;;;13.52;78.84
27685;BME280;46113;50.130;8.526;2023-05-23T04:25:16;99022.00;;;13.20;79.11
27685;BME280;46113;50.130;8.526;2023-05-23T04:27:54;99023.88;;;13.55;78.15
27685;BME280;46113;50.130;8.526;2023-05-23T04:30:21;99030.47;;;13.49;77.99
27685;BME280;46113;50.130;8.526;2023-05-23T04:32:49;99037.94;;;13.44;78.24
27685;BME280;46113;50.130;8.526;2023-05-23T04:35:15;99028.28;;;12.93;77.85
27685;BME280;46113;50.130;8.526;2023-05-23T04:37:42;99032.72;;;13.18;77.42
27685;BME280;46113;50.130;8.526;2023-05-23T04:40:11;99038.00;;;13.31;76.09
27685;BME280;46113;50.130;8.526;2023-05-23T04:42:57;99038.56;;;13.48;77.13
27685;BME280;46113;50.130;8.526;2023-05-23T04:45:44;99038.31;;;13.26;77.85
27685;BME280;46113;50.130;8.526;2023-05-23T04:48:29;99040.81;;;13.41;76.37
27685;BME280;46113;50.130;8.526;2023-05-23T04:50:58;99041.94;;;13.25;72.31
27685;BME280;46113;50.130;8.526;2023-05-23T04:53:28;99045.19;;;13.42;71.74
27685;BME280;46113;50.130;8.526;2023-05-23T04:55:56;99051.31;;;13.18;74.37
27685;BME280;46113;50.130;8.526;2023-05-23T04:58:23;99048.50;;;13.33;73.67
27685;BME280;46113;50.130;8.526;2023-05-23T05:00:56;99054.28;;;13.13;73.17
27685;BME280;46113;50.130;8.526;2023-05-23T05:03:22;99063.66;;;12.93;75.17
27685;BME280;46113;50.130;8.526;2023-05-23T05:05:51;99060.53;;;13.25;76.00
27685;BME280;46113;50.130;8.526;2023-05-23T05:08:19;99065.88;;;13.12;73.75
27685;BME280;46113;50.130;8.526;2023-05-23T05:10:46;99070.88;;;12.78;73.43
27685;BME280;46113;50.130;8.526;2023-05-23T05:13:14;99069.53;;;12.72;72.40
27685;BME280;46113;50.130;8.526;2023-05-23T05:15:45;99073.22;;;12.96;74.54
27685;BME280;46113;50.130;8.526;2023-05-23T05:18:12;99068.75;;;12.83;73.12
27685;BME280;46113;50.130;8.526;2023-05-23T05:20:39;99074.84;;;12.59;73.13
27685;BME280;46113;50.130;8.526;2023-05-23T05:23:08;99077.06;;;12.66;72.06
27685;BME280;46113;50.130;8.526;2023-05-23T05:25:35;99079.78;;;13.03;71.86
27685;BME280;46113;50.130;8.526;2023-05-23T05:28:03;99076.53;;;12.73;74.41
27685;BME280;46113;50.130;8.526;2023-05-23T05:30:35;99079.56;;;13.06;72.83
27685;BME280;46113;50.130;8.526;2023-05-23T05:33:04;99082.66;;;13.13;73.49
27685;BME280;46113;50.130;8.526;2023-05-23T05:35:32;99088.50;;;13.05;72.21
27685;BME280;46113;50.130;8.526;2023-05-23T05:38:01;99089.34;;;12.93;71.08
27685;BME280;46113;50.130;8.526;2023-05-23T05:40:31;99091.41;;;12.50;71.94
27685;BME280;46113;50.130;8.526;2023-05-23T05:42:59;99088.28;;;13.08;71.85
27685;BME280;46113;50.130;8.526;2023-05-23T05:45:25;99084.25;;;13.16;73.29
27685;BME280;46113;50.130;8.526;2023-05-23T05:47:52;99082.31;;;13.18;73.21
27685;BME280;46113;50.130;8.526;2023-05-23T05:50:22;99092.22;;;13.16;70.04
27685;BME280;46113;50.130;8.526;2023-05-23T05:52:49;99091.13;;;13.31;71.67
27685;BME280;46113;50.130;8.526;2023-05-23T05:55:16;99084.94;;;13.31;71.72
27685;BME280;46113;50.130;8.526;2023-05-23T05:57:46;99098.19;;;13.44;71.62
27685;BME280;46113;50.130;8.526;2023-05-23T06:00:14;99100.22;;;13.40;70.40
27685;BME280;46113;50.130;8.526;2023-05-23T06:02:45;99097.03;;;12.84;69.40
27685;BME280;46113;50.130;8.526;2023-05-23T06:05:31;99097.66;;;12.88;74.92
27685;BME280;46113;50.130;8.526;2023-05-23T06:07:59;99100.09;;;12.65;73.33
27685;BME280;46113;50.130;8.526;2023-05-23T06:10:25;99099.88;;;12.81;72.56
27685;BME280;46113;50.130;8.526;2023-05-23T06:12:52;99098.63;;;12.74;71.68
27685;BME280;46113;50.130;8.526;2023-05-23T06:15:19;99113.88;;;12.57;71.46
27685;BME280;46113;50.130;8.526;2023-05-23T06:17:46;99115.06;;;12.53;69.70
27685;BME280;46113;50.130;8.526;2023-05-23T06:20:13;99109.09;;;12.89;71.86
27685;BME280;46113;50.130;8.526;2023-05-23T06:22:43;99111.03;;;12.86;70.96
27685;BME280;46113;50.130;8.526;2023-05-23T06:25:11;99114.94;;;12.94;71.46
27685;BME280;46113;50.130;8.526;2023-05-23T06:27:38;99112.00;;;12.72;68.36
27685;BME280;46113;50.130;8.526;2023-05-23T06:30:05;99117.81;;;12.91;67.94
27685;BME280;46113;50.130;8.526;2023-05-23T06:32:32;99124.41;;;12.72;71.24
27685;BME280;46113;50.130;8.526;2023-05-23T06:34:58;99122.50;;;13.13;70.30
27685;BME280;46113;50.130;8.526;2023-05-23T06:37:25;99119.50;;;13.05;72.49
27685;BME280;46113;50.130;8.526;2023-05-23T06:39:51;99121.22;;;12.67;69.07
27685;BME280;46113;50.130;8.526;2023-05-23T06:42:18;99116.66;;;12.56;72.49
27685;BME280;46113;50.130;8.526;2023-05-23T06:44:55;99121.53;;;12.88;69.30
27685;BME280;46113;50.130;8.526;2023-05-23T06:47:23;99114.66;;;12.85;68.66
27685;BME280;46113;50.130;8.526;2023-05-23T06:49:50;99122.09;;;13.44;70.60
27685;BME280;46113;50.130;8.526;2023-05-23T06:52:16;99122.25;;;13.03;66.74
27685;BME280;46113;50.130;8.526;2023-05-23T06:54:43;99127.94;;;13.49;66.43
27685;BME280;46113;50.130;8.526;2023-05-23T06:57:10;99131.09;;;13.17;70.09
27685;BME280;46113;50.130;8.526;2023-05-23T06:59:37;99129.59;;;12.99;66.54
27685;BME280;46113;50.130;8.526;2023-05-23T07:02:04;99128.28;;;13.44;69.12
27685;BME280;46113;50.130;8.526;2023-05-23T07:04:30;99130.31;;;13.65;67.08
27685;BME280;46113;50.130;8.526;2023-05-23T07:07:02;99129.19;;;13.56;70.47
27685;BME280;46113;50.130;8.526;2023-05-23T07:09:29;99128.63;;;13.64;67.95
27685;BME280;46113;50.130;8.526;2023-05-23T07:12:05;99137.16;;;13.56;67.40
27685;BME280;46113;50.130;8.526;2023-05-23T07:14:35;99130.56;;;13.11;65.90
27685;BME280;46113;50.130;8.526;2023-05-23T07:17:04;99132.13;;;13.27;71.18
27685;BME280;46113;50.130;8.526;2023-05-23T07:19:32;99130.16;;;13.79;70.58
27685;BME280;46113;50.130;8.526;2023-05-23T07:21:59;99131.06;;;13.91;70.53
27685;BME280;46113;50.130;8.526;2023-05-23T07:24:28;99130.03;;;13.57;66.97
27685;BME280;46113;50.130;8.526;2023-05-23T07:26:55;99107.13;;;14.16;67.46
27685;BME280;46113;50.130;8.526;2023-05-23T07:29:23;99099.06;;;15.22;63.17
27685;BME280;46113;50.130;8.526;2023-05-23T07:31:51;99103.59;;;15.54;58.82
27685;BME280;46113;50.130;8.526;2023-05-23T07:34:20;99107.50;;;16.15;56.34
27685;BME280;46113;50.130;8.526;2023-05-23T07:36:54;99106.94;;;16.33;55.66
27685;BME280;46113;50.130;8.526;2023-05-23T07:39:23;99119.50;;;16.42;53.73
27685;BME280;46113;50.130;8.526;2023-05-23T07:41:51;99116.13;;;16.83;54.83
27685;BME280;46113;50.130;8.526;2023-05-23T07:44:18;99113.50;;;17.44;53.93
27685;BME280;46113;50.130;8.526;2023-05-23T07:46:49;99120.22;;;16.66;54.73
27685;BME280;46113;50.130;8.526;2023-05-23T07:49:16;99118.78;;;17.24;53.75
27685;BME280;46113;50.130;8.526;2023-05-23T07:51:43;99127.00;;;17.32;51.77
27685;BME280;46113;50.130;8.526;2023-05-23T07:54:09;99127.56;;;16.95;54.62
27685;BME280;46113;50.130;8.526;2023-05-23T07:56:39;99126.31;;;15.81;55.93
27685;BME280;46113;50.130;8.526;2023-05-23T07:59:06;99122.50;;;16.49;55.54
27685;BME280;46113;50.130;8.526;2023-05-23T08:01:34;99124.59;;;16.24;55.20
27685;BME280;46113;50.130;8.526;2023-05-23T08:04:03;99128.75;;;16.38;55.93
27685;BME280;46113;50.130;8.526;2023-05-23T08:06:40;99137.47;;;16.40;56.11
27685;BME280;46113;50.130;8.526;2023-05-23T08:09:25;99141.53;;;15.58;57.80
27685;BME280;46113;50.130;8.526;2023-05-23T08:11:54;99139.00;;;16.00;58.20
27685;BME280;46113;50.130;8.526;2023-05-23T08:14:23;99136.50;;;15.76;55.75
27685;BME280;46113;50.130;8.526;2023-05-23T08:17:18;99136.16;;;16.56;58.97
27685;BME280;46113;50.130;8.526;2023-05-23T08:19:45;99140.34;;;16.49;56.96
27685;BME280;46113;50.130;8.526;2023-05-23T08:22:13;99145.03;;;16.02;55.95
27685;BME280;46113;50.130;8.526;2023-05-23T08:24:39;99152.00;;;16.48;55.77
27685;BME280;46113;50.130;8.526;2023-05-23T08:27:06;99151.47;;;16.33;56.75
27685;BME280;46113;50.130;8.526;2023-05-23T08:29:34;99147.59;;;15.48;56.51
27685;BME280;46113;50.130;8.526;2023-05-23T08:32:02;99148.44;;;15.60;58.76
27685;BME280;46113;50.130;8.526;2023-05-23T08:34:29;99145.91;;;15.02;59.10
27685;BME280;46113;50.130;8.526;2023-05-23T08:36:56;99145.38;;;14.85;59.16
27685;BME280;46113;50.130;8.526;2023-05-23T08:39:23;99159.84;;;15.05;62.03
27685;BME280;46113;50.130;8.526;2023-05-23T08:41:57;99153.66;;;15.05;60.45
27685;BME280;46113;50.130;8.526;2023-05-23T08:44:25;99155.13;;;14.97;59.20
27685;BME280;46113;50.130;8.526;2023-05-23T08:47:02;99162.59;;;14.92;60.74
27685;BME280;46113;50.130;8.526;2023-05-23T08:49:51;99165.28;;;15.15;59.08
27685;BME280;46113;50.130;8.526;2023-05-23T08:52:23;99155.34;;;15.06;58.21
27685;BME280;46113;50.130;8.526;2023-05-23T08:54:53;99155.22;;;15.19;59.43
27685;BME280;46113;50.130;8.526;2023-05-23T08:57:20;99160.84;;;14.68;58.89
27685;BME280;46113;50.130;8.526;2023-05-23T08:59:52;99165.22;;;14.81;61.59
27685;BME280;46113;50.130;8.526;2023-05-23T09:02:21;99168.44;;;15.09;61.31
27685;BME280;46113;50.130;8.526;2023-05-23T09:04:51;99156.81;;;15.21;64.19
27685;BME280;46113;50.130;8.526;2023-05-23T09:07:23;99163.84;;;15.22;59.15
27685;BME280;46113;50.130;8.526;2023-05-23T09:09:51;99155.91;;;15.67;57.62
27685;BME280;46113;50.130;8.526;2023-05-23T09:12:18;99162.06;;;15.90;56.73
27685;BME280;46113;50.130;8.526;2023-05-23T09:14:49;99167.63;;;16.31;57.29
27685;BME280;46113;50.130;8.526;2023-05-23T09:17:20;99162.72;;;16.15;55.35
27685;BME280;46113;50.130;8.526;2023-05-23T09:19:49;99163.63;;;16.25;56.00
27685;BME280;46113;50.130;8.526;2023-05-23T09:22:25;99155.19;;;15.64;58.93
27685;BME280;46113;50.130;8.526;2023-05-23T09:25:13;99168.34;;;15.77;56.68
27685;BME280;46113;50.130;8.526;2023-05-23T09:27:42;99167.69;;;15.64;56.79
27685;BME280;46113;50.130;8.526;2023-05-23T09:30:13;99164.44;;;15.60;57.71
27685;BME280;46113;50.130;8.526;2023-05-23T09:32:40;99170.47;;;15.62;57.44
27685;BME280;46113;50.130;8.526;2023-05-23T09:35:08;99161.69;;;15.83;57.28
27685;BME280;46113;50.130;8.526;2023-05-23T09:37:42;99167.31;;;16.13;57.32
27685;BME280;46113;50.130;8.526;2023-05-23T09:40:12;99164.78;;;15.56;58.02
27685;BME280;46113;50.130;8.526;2023-05-23T09:42:47;99169.09;;;15.91;56.19
27685;BME280;46113;50.130;8.526;2023-05-23T09:45:15;99166.69;;;15.88;56.51
27685;BME280;46113;50.130;8.526;2023-05-23T09:47:51;99160.34;;;16.00;55.93
27685;BME280;46113;50.130;8.526;2023-05-23T09:50:20;99160.94;;;16.04;55.86
27685;BME280;46113;50.130;8.526;2023-05-23T09:52:47;99158.69;;;15.88;55.77
27685;BME280;46113;50.130;8.526;2023-05-23T09:55:14;99170.56;;;15.72;58.68
27685;BME280;46113;50.130;8.526;2023-05-23T09:57:42;99164.03;;;15.88;55.97
27685;BME280;46113;50.130;8.526;2023-05-23T10:00:10;99168.91;;;15.26;57.58
27685;BME280;46113;50.130;8.526;2023-05-23T10:05:30;99174.84;;;15.52;59.13
27685;BME280;46113;50.130;8.526;2023-05-23T10:08:01;99168.44;;;15.32;61.23
27685;BME280;46113;50.130;8.526;2023-05-23T10:10:31;99169.16;;;15.45;57.15
27685;BME280;46113;50.130;8.526;2023-05-23T10:13:01;99177.59;;;15.62;57.76
27685;BME280;46113;50.130;8.526;2023-05-23T10:15:34;99175.94;;;15.49;60.27
27685;BME280;46113;50.130;8.526;2023-05-23T10:18:09;99173.63;;;15.33;59.27
27685;BME280;46113;50.130;8.526;2023-05-23T10:20:39;99173.75;;;15.55;61.68
27685;BME280;46113;50.130;8.526;2023-05-23T10:23:07;99176.81;;;15.16;64.34
27685;BME280;46113;50.130;8.526;2023-05-23T10:25:34;99180.25;;;14.82;60.99
27685;BME280;46113;50.130;8.526;2023-05-23T10:28:03;99179.28;;;14.83;59.71
27685;BME280;46113;50.130;8.526;2023-05-23T10:30:31;99186.78;;;14.89;60.33
27685;BME280;46113;50.130;8.526;2023-05-23T10:32:58;99189.16;;;14.69;59.17
27685;BME280;46113;50.130;8.526;2023-05-23T10:43:54;99188.34;;;14.69;62.14
27685;BME280;46113;50.130;8.526;2023-05-23T10:46:22;99198.13;;;15.16;59.26
27685;BME280;46113;50.130;8.526;2023-05-23T10:48:53;99198.59;;;15.21;57.94
27685;BME280;46113;50.130;8.526;2023-05-23T10:51:22;99193.03;;;15.47;59.45
27685;BME280;46113;50.130;8.526;2023-05-23T10:53:53;99200.41;;;15.09;57.34
27685;BME280;46113;50.130;8.526;2023-05-23T10:56:21;99201.28;;;15.55;57.73
27685;BME280;46113;50.130;8.526;2023-05-23T10:58:53;99202.47;;;15.28;61.22
27685;BME280;46113;50.130;8.526;2023-05-23T11:01:20;99203.50;;;16.06;57.03
27685;BME280;46113;50.130;8.526;2023-05-23T11:03:52;99205.44;;;15.92;54.95
27685;BME280;46113;50.130;8.526;2023-05-23T11:09:14;99199.19;;;15.36;55.87
27685;BME280;46113;50.130;8.526;2023-05-23T11:11:55;99203.50;;;16.06;55.83
27685;BME280;46113;50.130;8.526;2023-05-23T11:17:17;99210.84;;;15.12;56.25
27685;BME280;46113;50.130;8.526;2023-05-23T11:20:14;99211.94;;;15.32;56.27
27685;BME280;46113;50.130;8.526;2023-05-23T11:22:52;99210.09;;;15.10;55.92
27685;BME280;46113;50.130;8.526;2023-05-23T11:25:19;99212.03;;;15.31;56.05
27685;BME280;46113;50.130;8.526;2023-05-23T11:27:48;99213.97;;;15.63;55.44
27685;BME280;46113;50.130;8.526;2023-05-23T11:30:16;99218.44;;;15.62;56.68
27685;BME280;46113;50.130;8.526;2023-05-23T11:32:51;99213.50;;;15.46;55.11
27685;BME280;46113;50.130;8.526;2023-05-23T11:35:20;99216.50;;;15.76;54.63
27685;BME280;46113;50.130;8.526;2023-05-23T11:37:47;99221.66;;;16.12;55.04
27685;BME280;46113;50.130;8.526;2023-05-23T11:40:34;99230.94;;;15.39;54.24
27685;BME280;46113;50.130;8.526;2023-05-23T11:43:04;99226.56;;;15.15;59.39
27685;BME280;46113;50.130;8.526;2023-05-23T11:45:32;99234.94;;;15.33;55.70
27685;BME280;46113;50.130;8.526;2023-05-23T11:48:19;99228.41;;;15.60;57.80
27685;BME280;46113;50.130;8.526;2023-05-23T11:50:51;99239.75;;;14.69;56.57
27685;BME280;46113;50.130;8.526;2023-05-23T11:53:20;99230.44;;;15.11;56.58
27685;BME280;46113;50.130;8.526;2023-05-23T11:55:49;99225.47;;;15.06;57.00
27685;BME280;46113;50.130;8.526;2023-05-23T11:58:16;99237.59;;;15.10;56.65
27685;BME280;46113;50.130;8.526;2023-05-23T12:00:44;99237.69;;;14.73;57.81
27685;BME280;46113;50.130;8.526;2023-05-23T12:03:11;99246.19;;;15.14;56.68
27685;BME280;46113;50.130;8.526;2023-05-23T12:05:38;99248.91;;;14.90;58.14
27685;BME280;46113;50.130;8.526;2023-05-23T12:08:05;99246.69;;;15.31;56.18
27685;BME280;46113;50.130;8.526;2023-05-23T12:10:31;99253.59;;;14.86;56.15
27685;BME280;46113;50.130;8.526;2023-05-23T12:12:58;99251.47;;;14.67;57.22
27685;BME280;46113;50.130;8.526;2023-05-23T12:15:26;99252.97;;;14.82;55.90
27685;BME280;46113;50.130;8.526;2023-05-23T12:17:54;99250.06;;;14.74;55.92
27685;BME280;46113;50.130;8.526;2023-05-23T12:20:25;99244.28;;;14.56;56.70
27685;BME280;46113;50.130;8.526;2023-05-23T12:22:53;99252.16;;;14.82;56.34
27685;BME280;46113;50.130;8.526;2023-05-23T12:25:19;99259.81;;;14.98;56.67
27685;BME280;46113;50.130;8.526;2023-05-23T12:27:48;99253.88;;;14.58;55.24
27685;BME280;46113;50.130;8.526;2023-05-23T12:30:15;99257.59;;;14.92;54.54
27685;BME280;46113;50.130;8.526;2023-05-23T12:32:44;99256.59;;;14.70;55.56
27685;BME280;46113;50.130;8.526;2023-05-23T12:35:13;99256.91;;;14.29;56.83
27685;BME280;46113;50.130;8.526;2023-05-23T12:37:40;99269.53;;;14.39;56.00
27685;BME280;46113;50.130;8.526;2023-05-23T12:40:15;99265.78;;;14.41;56.01
27685;BME280;46113;50.130;8.526;2023-05-23T12:45:19;99268.25;;;14.56;55.51
27685;BME280;46113;50.130;8.526;2023-05-23T12:47:46;99270.63;;;14.72;55.93
27685;BME280;46113;50.130;8.526;2023-05-23T12:50:13;99269.31;;;14.78;55.23
27685;BME280;46113;50.130;8.526;2023-05-23T12:52:40;99272.47;;;14.23;56.54
27685;BME280;46113;50.130;8.526;2023-05-23T12:55:08;99266.94;;;14.62;55.14
27685;BME280;46113;50.130;8.526;2023-05-23T12:57:34;99269.47;;;14.52;55.81
27685;BME280;46113;50.130;8.526;2023-05-23T13:00:01;99269.97;;;14.33;55.24
27685;BME280;46113;50.130;8.526;2023-05-23T13:02:29;99275.56;;;14.41;55.62
27685;BME280;46113;50.130;8.526;2023-05-23T13:04:55;99271.91;;;13.93;57.38
27685;BME280;46113;50.130;8.526;2023-05-23T13:07:22;99269.50;;;14.01;57.33
27685;BME280;46113;50.130;8.526;2023-05-23T13:09:49;99274.56;;;14.06;57.06
27685;BME280;46113;50.130;8.526;2023-05-23T13:12:16;99268.53;;;14.02;57.40
27685;BME280;46113;50.130;8.526;2023-05-23T13:14:43;99269.81;;;14.23;57.53
27685;BME280;46113;50.130;8.526;2023-05-23T13:17:09;99269.22;;;14.06;57.26
27685;BME280;46113;50.130;8.526;2023-05-23T13:19:36;99277.38;;;14.16;58.02
27685;BME280;46113;50.130;8.526;2023-05-23T13:22:05;99281.84;;;14.15;57.83
27685;BME280;46113;50.130;8.526;2023-05-23T13:24:32;99277.03;;;14.21;56.83
27685;BME280;46113;50.130;8.526;2023-05-23T13:26:59;99279.00;;;13.92;57.49
27685;BME280;46113;50.130;8.526;2023-05-23T13:29:26;99282.25;;;14.22;57.02
27685;BME280;46113;50.130;8.526;2023-05-23T13:31:53;99284.31;;;13.92;57.17
27685;BME280;46113;50.130;8.526;2023-05-23T13:34:19;99288.25;;;13.87;57.34
27685;BME280;46113;50.130;8.526;2023-05-23T13:36:46;99282.13;;;14.24;56.46
27685;BME280;46113;50.130;8.526;2023-05-23T13:39:13;99279.72;;;13.57;58.09
27685;BME280;46113;50.130;8.526;2023-05-23T13:41:40;99279.97;;;13.91;57.33
27685;BME280;46113;50.130;8.526;2023-05-23T13:44:06;99271.69;;;13.83;57.96
27685;BME280;46113;50.130;8.526;2023-05-23T13:46:33;99279.22;;;14.40;56.72
27685;BME280;46113;50.130;8.526;2023-05-23T13:49:00;99289.00;;;14.39;57.32
27685;BME280;46113;50.130;8.526;2023-05-23T13:51:26;99274.31;;;14.58;57.52
27685;BME280;46113;50.130;8.526;2023-05-23T13:53:53;99281.69;;;14.54;57.18
27685;BME280;46113;50.130;8.526;2023-05-23T13:56:19;99281.47;;;14.33;56.24
27685;BME280;46113;50.130;8.526;2023-05-23T13:58:46;99281.16;;;14.25;56.23
27685;BME280;46113;50.130;8.526;2023-05-23T14:01:13;99283.25;;;14.08;56.88
27685;BME280;46113;50.130;8.526;2023-05-23T14:03:39;99281.06;;;14.51;57.43
27685;BME280;46113;50.130;8.526;2023-05-23T14:06:06;99276.28;;;13.81;58.20
27685;BME280;46113;50.130;8.526;2023-05-23T14:08:33;99275.84;;;14.25;57.37
27685;BME280;46113;50.130;8.526;2023-05-23T14:11:00;99272.31;;;14.37;55.73
27685;BME280;46113;50.130;8.526;2023-05-23T14:13:27;99275.56;;;14.65;58.05
27685;BME280;46113;50.130;8.526;2023-05-23T14:15:53;99283.09;;;14.47;60.19
27685;BME280;46113;50.130;8.526;2023-05-23T14:18:20;99280.19;;;14.39;56.95
27685;BME280;46113;50.130;8.526;2023-05-23T14:20:47;99281.69;;;14.54;59.15
27685;BME280;46113;50.130;8.526;2023-05-23T14:23:13;99285.75;;;14.23;57.17
27685;BME280;46113;50.130;8.526;2023-05-23T14:25:40;99289.28;;;14.48;55.61
27685;BME280;46113;50.130;8.526;2023-05-23T14:28:07;99290.25;;;14.47;54.69
27685;BME280;46113;50.130;8.526;2023-05-23T14:30:33;99296.19;;;13.62;56.39
27685;BME280;46113;50.130;8.526;2023-05-23T14:33:00;99294.94;;;13.55;56.80
27685;BME280;46113;50.130;8.526;2023-05-23T14:35:27;99297.41;;;13.05;57.53
27685;BME280;46113;50.130;8.526;2023-05-23T14:37:55;99299.19;;;13.45;56.89
27685;BME280;46113;50.130;8.526;2023-05-23T14:40:21;99299.91;;;13.34;57.39
27685;BME280;46113;50.130;8.526;2023-05-23T14:42:48;99295.22;;;13.37;57.22
27685;BME280;46113;50.130;8.526;2023-05-23T14:45:14;99293.16;;;13.80;56.44
27685;BME280;46113;50.130;8.526;2023-05-23T14:47:44;99303.97;;;14.03;55.30
27685;BME280;46113;50.130;8.526;2023-05-23T14:50:11;99306.53;;;14.17;55.49
27685;BME280;46113;50.130;8.526;2023-05-23T14:52:37;99310.25;;;14.15;54.82
27685;BME280;46113;50.130;8.526;2023-05-23T14:55:04;99304.19;;;14.00;55.00
27685;BME280;46113;50.130;8.526;2023-05-23T14:57:31;99309.66;;;13.72;55.53
27685;BME280;46113;50.130;8.526;2023-05-23T14:59:58;99310.81;;;14.07;54.88
27685;BME280;46113;50.130;8.526;2023-05-23T15:02:25;99307.16;;;14.45;54.29
27685;BME280;46113;50.130;8.526;2023-05-23T15:04:51;99312.22;;;14.37;53.30
27685;BME280;46113;50.130;8.526;2023-05-23T15:07:18;99309.75;;;14.10;54.33
27685;BME280;46113;50.130;8.526;2023-05-23T15:09:45;99310.16;;;14.03;54.93
27685;BME280;46113;50.130;8.526;2023-05-23T15:12:13;99303.56;;;14.09;54.59
27685;BME280;46113;50.130;8.526;2023-05-23T15:14:42;99316.78;;;13.85;54.78
27685;BME280;46113;50.130;8.526;2023-05-23T15:17:10;99311.34;;;13.99;54.03
27685;BME280;46113;50.130;8.526;2023-05-23T15:19:38;99312.19;;;13.87;55.00
27685;BME280;46113;50.130;8.526;2023-05-23T15:22:08;99317.66;;;13.85;54.47
27685;BME280;46113;50.130;8.526;2023-05-23T15:24:47;99316.16;;;13.81;54.64
27685;BME280;46113;50.130;8.526;2023-05-23T15:27:14;99311.47;;;14.35;55.12
27685;BME280;46113;50.130;8.526;2023-05-23T15:29:46;99318.69;;;13.83;54.76
27685;BME280;46113;50.130;8.526;2023-05-23T15:32:13;99313.19;;;14.23;55.76
27685;BME280;46113;50.130;8.526;2023-05-23T15:34:40;99318.69;;;13.70;55.20
27685;BME280;46113;50.130;8.526;2023-05-23T15:37:07;99311.78;;;14.06;54.63
27685;BME280;46113;50.130;8.526;2023-05-23T15:39:34;99316.34;;;13.91;54.30
27685;BME280;46113;50.130;8.526;2023-05-23T15:42:01;99319.00;;;13.91;53.31
27685;BME280;46113;50.130;8.526;2023-05-23T15:44:28;99311.50;;;13.72;53.84
27685;BME280;46113;50.130;8.526;2023-05-23T15:46:55;99308.56;;;14.01;53.48
27685;BME280;46113;50.130;8.526;2023-05-23T15:49:22;99305.91;;;14.38;51.64
27685;BME280;46113;50.130;8.526;2023-05-23T15:51:52;99310.63;;;14.35;52.00
27685;BME280;46113;50.130;8.526;2023-05-23T15:54:21;99314.97;;;13.98;51.50
27685;BME280;46113;50.130;8.526;2023-05-23T15:56:47;99306.09;;;14.48;53.82
27685;BME280;46113;50.130;8.526;2023-05-23T15:59:14;99313.22;;;14.72;51.54
27685;BME280;46113;50.130;8.526;2023-05-23T16:01:41;99314.47;;;14.79;51.15
27685;BME280;46113;50.130;8.526;2023-05-23T16:04:07;99308.00;;;14.95;52.26
27685;BME280;46113;50.130;8.526;2023-05-23T16:06:35;99304.50;;;14.45;51.58
27685;BME280;46113;50.130;8.526;2023-05-23T16:09:02;99307.72;;;14.38;51.11
27685;BME280;46113;50.130;8.526;2023-05-23T16:11:29;99309.03;;;14.56;51.49
27685;BME280;46113;50.130;8.526;2023-05-23T16:13:55;99313.22;;;14.48;51.58
27685;BME280;46113;50.130;8.526;2023-05-23T16:16:22;99314.38;;;14.32;53.86
27685;BME280;46113;50.130;8.526;2023-05-23T16:18:48;99319.13;;;14.40;53.01
27685;BME280;46113;50.130;8.526;2023-05-23T16:21:15;99322.53;;;14.04;53.14
27685;BME280;46113;50.130;8.526;2023-05-23T16:23:47;99312.09;;;14.39;52.35
27685;BME280;46113;50.130;8.526;2023-05-23T16:26:15;99321.78;;;14.40;51.88
27685;BME280;46113;50.130;8.526;2023-05-23T16:28:42;99313.84;;;14.51;52.75
27685;BME280;46113;50.130;8.526;2023-05-23T16:31:12;99316.09;;;14.44;52.02
27685;BME280;46113;50.130;8.526;2023-05-23T16:33:39;99316.63;;;14.25;52.32
27685;BME280;46113;50.130;8.526;2023-05-23T16:36:06;99325.50;;;13.74;52.97
27685;BME280;46113;50.130;8.526;2023-05-23T16:38:33;99330.75;;;13.49;52.68
27685;BME280;46113;50.130;8.526;2023-05-23T16:41:00;99321.59;;;13.41;52.15
27685;BME280;46113;50.130;8.526;2023-05-23T16:43:26;99324.47;;;13.37;52.73
27685;BME280;46113;50.130;8.526;2023-05-23T16:45:53;99322.09;;;13.07;52.75
27685;BME280;46113;50.130;8.526;2023-05-23T16:48:20;99322.22;;;13.57;52.42
27685;BME280;46113;50.130;8.526;2023-05-23T16:50:47;99304.34;;;13.59;53.06
27685;BME280;46113;50.130;8.526;2023-05-23T16:53:14;99320.06;;;13.88;52.03
27685;BME280;46113;50.130;8.526;2023-05-23T16:55:40;99324.41;;;13.89;51.81
27685;BME280;46113;50.130;8.526;2023-05-23T16:58:07;99320.44;;;13.71;53.56
27685;BME280;46113;50.130;8.526;2023-05-23T17:00:34;99337.09;;;13.73;52.80
27685;BME280;46113;50.130;8.526;2023-05-23T17:03:01;99332.84;;;13.31;52.63
27685;BME280;46113;50.130;8.526;2023-05-23T17:05:28;99340.03;;;13.16;54.00
27685;BME280;46113;50.130;8.526;2023-05-23T17:07:54;99334.22;;;12.96;53.22
27685;BME280;46113;50.130;8.526;2023-05-23T17:10:21;99344.84;;;12.96;53.63
27685;BME280;46113;50.130;8.526;2023-05-23T17:12:48;99332.53;;;12.95;53.00
27685;BME280;46113;50.130;8.526;2023-05-23T17:15:15;99330.84;;;13.35;52.21
27685;BME280;46113;50.130;8.526;2023-05-23T17:17:42;99335.09;;;13.37;51.54
27685;BME280;46113;50.130;8.526;2023-05-23T17:20:08;99333.28;;;13.38;51.80
27685;BME280;46113;50.130;8.526;2023-05-23T17:22:36;99337.81;;;13.10;51.83
27685;BME280;46113;50.130;8.526;2023-05-23T17:25:03;99341.28;;;12.97;52.56
27685;BME280;46113;50.130;8.526;2023-05-23T17:27:32;99337.44;;;13.42;51.03
27685;BME280;46113;50.130;8.526;2023-05-23T17:29:58;99340.41;;;13.37;51.44